sensor_id;sensor_type;location;lat;lon;timestamp;pressure;altitude;pressure_sealevel;temperature;humidity
25080;BME280;13071;48.868;9.996;2023-12-07T00:01:32;96725.47;;;1.55;100.00
25080;BME280;13071;48.868;9.996;2023-12-07T00:04:00;96711.88;;;1.51;100.00
25080;BME280;13071;48.868;9.996;2023-12-07T00:06:27;96721.19;;;1.44;100.00
25080;BME280;13071;48.868;9.996;2023-12-07T00:08:55;96720.94;;;1.45;100.00
25080;BME280;13071;48.868;9.996;2023-12-07T00:11:23;96726.22;;;1.70;100.00
25080;BME280;13071;48.868;9.996;2023-12-07T00:13:50;96723.56;;;1.65;100.00
25080;BME280;13071;48.868;9.996;2023-12-07T00:16:16;96727.06;;;1.56;100.00
25080;BME280;13071;48.868;9.996;2023-12-07T00:18:43;96728.94;;;1.40;100.00
25080;BME280;13071;48.868;9.996;2023-12-07T00:21:10;96737.22;;;1.39;100.00
25080;BME280;13071;48.868;9.996;2023-12-07T00:23:36;96732.69;;;1.34;100.00
25080;BME280;13071;48.868;9.996;2023-12-07T00:26:05;96735.63;;;1.27;100.00
25080;BME280;13071;48.868;9.996;2023-12-07T00:28:31;96736.16;;;1.29;100.00
25080;BME280;13071;48.868;9.996;2023-12-07T00:30:58;96735.63;;;1.27;100.00
25080;BME280;13071;48.868;9.996;2023-12-07T00:33:25;96740.44;;;1.20;100.00
25080;BME280;13071;48.868;9.996;2023-12-07T00:35:51;96750.84;;;1.27;100.00
25080;BME280;13071;48.868;9.996;2023-12-07T00:38:18;96746.81;;;1.29;100.00
25080;BME280;13071;48.868;9.996;2023-12-07T00:40:46;96746.31;;;1.27;100.00
25080;BME280;13071;48.868;9.996;2023-12-07T00:43:14;96757.50;;;1.29;100.00
25080;BME280;13071;48.868;9.996;2023-12-07T00:45:41;96755.34;;;1.47;100.00
25080;BME280;13071;48.868;9.996;2023-12-07T00:48:08;96752.41;;;1.43;100.00
25080;BME280;13071;48.868;9.996;2023-12-07T00:50:34;96759.09;;;1.36;100.00
25080;BME280;13071;48.868;9.996;2023-12-07T00:53:01;96754.56;;;1.36;100.00
25080;BME280;13071;48.868;9.996;2023-12-07T00:55:28;96762.31;;;1.27;100.00
25080;BME280;13071;48.868;9.996;2023-12-07T00:57:54;96755.38;;;1.37;100.00
25080;BME280;13071;48.868;9.996;2023-12-07T01:00:22;96760.16;;;1.40;100.00
25080;BME280;13071;48.868;9.996;2023-12-07T01:02:49;96760.44;;;1.38;100.00
25080;BME280;13071;48.868;9.996;2023-12-07T01:05:16;96768.94;;;0.95;100.00
25080;BME280;13071;48.868;9.996;2023-12-07T01:07:43;96767.88;;;0.85;100.00
25080;BME280;13071;48.868;9.996;2023-12-07T01:10:09;96761.75;;;1.25;100.00
25080;BME280;13071;48.868;9.996;2023-12-07T01:12:36;96763.09;;;1.28;100.00
25080;BME280;13071;48.868;9.996;2023-12-07T01:15:03;96767.63;;;1.12;100.00
25080;BME280;13071;48.868;9.996;2023-12-07T01:17:31;96773.22;;;1.06;100.00
25080;BME280;13071;48.868;9.996;2023-12-07T01:19:58;96768.44;;;1.28;100.00
25080;BME280;13071;48.868;9.996;2023-12-07T01:22:25;96767.91;;;1.21;100.00
25080;BME280;13071;48.868;9.996;2023-12-07T01:24:51;96770.81;;;1.14;100.00
25080;BME280;13071;48.868;9.996;2023-12-07T01:27:18;96775.63;;;1.33;100.00
25080;BME280;13071;48.868;9.996;2023-12-07T01:29:44;96782.84;;;1.37;100.00
25080;BME280;13071;48.868;9.996;2023-12-07T01:32:11;96787.38;;;1.42;100.00
25080;BME280;13071;48.868;9.996;2023-12-07T01:34:39;96802.25;;;0.92;100.00
25080;BME280;13071;48.868;9.996;2023-12-07T01:37:06;96816.34;;;0.77;100.00
25080;BME280;13071;48.868;9.996;2023-12-07T01:39:33;96812.41;;;1.05;100.00
25080;BME280;13071;48.868;9.996;2023-12-07T01:41:59;96817.44;;;0.97;100.00
25080;BME280;13071;48.868;9.996;2023-12-07T01:44:26;96813.19;;;1.06;100.00
25080;BME280;13071;48.868;9.996;2023-12-07T01:46:54;96811.88;;;1.13;100.00
25080;BME280;13071;48.868;9.996;2023-12-07T01:49:20;96809.75;;;1.15;100.00
25080;BME280;13071;48.868;9.996;2023-12-07T01:51:49;96808.13;;;1.14;100.00
25080;BME280;13071;48.868;9.996;2023-12-07T01:54:15;96813.22;;;1.21;100.00
25080;BME280;13071;48.868;9.996;2023-12-07T01:56:42;96808.44;;;1.23;100.00
25080;BME280;13071;48.868;9.996;2023-12-07T01:59:10;96808.94;;;1.25;100.00
25080;BME280;13071;48.868;9.996;2023-12-07T02:01:37;96808.44;;;1.28;100.00
25080;BME280;13071;48.868;9.996;2023-12-07T02:04:04;96808.94;;;1.30;100.00
25080;BME280;13071;48.868;9.996;2023-12-07T02:06:31;96806.03;;;1.32;100.00
25080;BME280;13071;48.868;9.996;2023-12-07T02:08:59;96811.63;;;1.35;100.00
25080;BME280;13071;48.868;9.996;2023-12-07T02:11:25;96812.41;;;1.36;100.00
25080;BME280;13071;48.868;9.996;2023-12-07T02:13:52;96807.91;;;1.36;100.00
25080;BME280;13071;48.868;9.996;2023-12-07T02:16:23;96811.09;;;1.38;100.00
25080;BME280;13071;48.868;9.996;2023-12-07T02:19:00;96813.22;;;1.41;100.00
25080;BME280;13071;48.868;9.996;2023-12-07T02:21:34;96811.06;;;1.43;100.00
25080;BME280;13071;48.868;9.996;2023-12-07T02:24:06;96810.00;;;1.39;100.00
25080;BME280;13071;48.868;9.996;2023-12-07T02:26:59;96807.09;;;1.41;100.00
25080;BME280;13071;48.868;9.996;2023-12-07T02:29:25;96811.38;;;1.42;100.00
25080;BME280;13071;48.868;9.996;2023-12-07T02:31:52;96816.16;;;1.45;100.00
25080;BME280;13071;48.868;9.996;2023-12-07T02:34:18;96806.28;;;1.45;100.00
25080;BME280;13071;48.868;9.996;2023-12-07T02:36:46;96812.16;;;1.47;100.00
25080;BME280;13071;48.868;9.996;2023-12-07T02:39:15;96813.50;;;1.50;100.00
25080;BME280;13071;48.868;9.996;2023-12-07T02:41:43;96806.03;;;1.52;100.00
25080;BME280;13071;48.868;9.996;2023-12-07T02:44:14;96811.38;;;1.52;100.00
25080;BME280;13071;48.868;9.996;2023-12-07T02:46:40;96806.84;;;1.52;100.00
25080;BME280;13071;48.868;9.996;2023-12-07T02:49:07;96806.53;;;1.49;100.00
25080;BME280;13071;48.868;9.996;2023-12-07T02:51:33;96811.88;;;1.49;100.00
25080;BME280;13071;48.868;9.996;2023-12-07T02:54:00;96814.53;;;1.54;100.00
25080;BME280;13071;48.868;9.996;2023-12-07T02:56:27;96822.03;;;1.52;100.00
25080;BME280;13071;48.868;9.996;2023-12-07T02:58:53;96821.22;;;1.51;100.00
25080;BME280;13071;48.868;9.996;2023-12-07T03:01:21;96818.56;;;1.51;100.00
25080;BME280;13071;48.868;9.996;2023-12-07T03:03:48;96823.91;;;1.41;100.00
25080;BME280;13071;48.868;9.996;2023-12-07T03:06:14;96816.97;;;1.45;100.00
25080;BME280;13071;48.868;9.996;2023-12-07T03:08:42;96823.63;;;1.48;100.00
25080;BME280;13071;48.868;9.996;2023-12-07T03:11:09;96827.06;;;1.43;100.00
25080;BME280;13071;48.868;9.996;2023-12-07T03:13:35;96826.00;;;1.29;100.00
25080;BME280;13071;48.868;9.996;2023-12-07T03:16:07;96820.44;;;1.41;100.00
25080;BME280;13071;48.868;9.996;2023-12-07T03:18:35;96822.28;;;1.45;100.00
25080;BME280;13071;48.868;9.996;2023-12-07T03:21:02;96817.50;;;1.47;100.00
25080;BME280;13071;48.868;9.996;2023-12-07T03:23:29;96826.56;;;1.56;100.00
25080;BME280;13071;48.868;9.996;2023-12-07T03:25:55;96819.38;;;1.62;100.00
25080;BME280;13071;48.868;9.996;2023-12-07T03:28:22;96825.50;;;1.67;100.00
25080;BME280;13071;48.868;9.996;2023-12-07T03:30:48;96829.47;;;1.75;100.00
25080;BME280;13071;48.868;9.996;2023-12-07T03:33:15;96823.88;;;1.77;100.00
25080;BME280;13071;48.868;9.996;2023-12-07T03:35:43;96816.94;;;1.81;100.00
25080;BME280;13071;48.868;9.996;2023-12-07T03:38:09;96820.13;;;1.83;100.00
25080;BME280;13071;48.868;9.996;2023-12-07T03:40:36;96831.88;;;1.77;100.00
25080;BME280;13071;48.868;9.996;2023-12-07T03:43:03;96823.34;;;1.80;100.00
25080;BME280;13071;48.868;9.996;2023-12-07T03:45:29;96831.59;;;1.73;100.00
25080;BME280;13071;48.868;9.996;2023-12-07T03:47:56;96835.38;;;1.72;100.00
25080;BME280;13071;48.868;9.996;2023-12-07T03:50:23;96826.81;;;1.80;100.00
25080;BME280;13071;48.868;9.996;2023-12-07T03:52:51;96829.22;;;1.77;100.00
25080;BME280;13071;48.868;9.996;2023-12-07T03:55:17;96833.75;;;1.71;100.00
25080;BME280;13071;48.868;9.996;2023-12-07T03:57:44;96823.34;;;1.80;100.00
25080;BME280;13071;48.868;9.996;2023-12-07T04:00:11;96828.41;;;1.86;100.00
25080;BME280;13071;48.868;9.996;2023-12-07T04:02:38;96831.34;;;1.69;100.00
25080;BME280;13071;48.868;9.996;2023-12-07T04:05:05;96831.34;;;1.59;100.00
25080;BME280;13071;48.868;9.996;2023-12-07T04:07:32;96833.50;;;1.47;100.00
25080;BME280;13071;48.868;9.996;2023-12-07T04:10:01;96834.28;;;1.63;100.00
25080;BME280;13071;48.868;9.996;2023-12-07T04:12:30;96830.28;;;1.45;100.00
25080;BME280;13071;48.868;9.996;2023-12-07T04:14:57;96834.31;;;1.53;100.00
25080;BME280;13071;48.868;9.996;2023-12-07T04:17:23;96841.50;;;1.57;100.00
25080;BME280;13071;48.868;9.996;2023-12-07T04:19:50;96834.81;;;1.50;100.00
25080;BME280;13071;48.868;9.996;2023-12-07T04:22:17;96841.75;;;1.36;100.00
25080;BME280;13071;48.868;9.996;2023-12-07T04:24:43;96841.75;;;1.25;100.00
25080;BME280;13071;48.868;9.996;2023-12-07T04:27:11;96838.25;;;1.15;100.00
25080;BME280;13071;48.868;9.996;2023-12-07T04:29:38;96849.13;;;0.78;100.00
25080;BME280;13071;48.868;9.996;2023-12-07T04:32:05;96853.94;;;0.91;100.00
25080;BME280;13071;48.868;9.996;2023-12-07T04:34:32;96844.09;;;0.92;100.00
25080;BME280;13071;48.868;9.996;2023-12-07T04:36:59;96850.41;;;0.70;100.00
25080;BME280;13071;48.868;9.996;2023-12-07T04:39:25;96850.97;;;0.77;100.00
25080;BME280;13071;48.868;9.996;2023-12-07T04:41:52;96853.91;;;0.81;100.00
25080;BME280;13071;48.868;9.996;2023-12-07T04:44:20;96849.94;;;0.83;100.00
25080;BME280;13071;48.868;9.996;2023-12-07T04:46:47;96857.97;;;1.04;100.00
25080;BME280;13071;48.868;9.996;2023-12-07T04:49:13;96862.50;;;0.98;100.00
25080;BME280;13071;48.868;9.996;2023-12-07T04:51:40;96866.22;;;0.97;100.00
25080;BME280;13071;48.868;9.996;2023-12-07T04:54:07;96867.00;;;0.93;100.00
25080;BME280;13071;48.868;9.996;2023-12-07T04:56:34;96863.63;;;1.22;100.00
25080;BME280;13071;48.868;9.996;2023-12-07T04:59:00;96860.38;;;1.15;100.00
25080;BME280;13071;48.868;9.996;2023-12-07T05:01:28;96864.94;;;1.20;100.00
25080;BME280;13071;48.868;9.996;2023-12-07T05:03:55;96864.94;;;1.20;100.00
25080;BME280;13071;48.868;9.996;2023-12-07T05:06:21;96858.81;;;1.29;100.00
25080;BME280;13071;48.868;9.996;2023-12-07T05:08:48;96859.34;;;1.26;100.00
25080;BME280;13071;48.868;9.996;2023-12-07T05:11:14;96862.00;;;1.26;100.00
25080;BME280;13071;48.868;9.996;2023-12-07T05:13:41;96865.75;;;1.25;100.00
25080;BME280;13071;48.868;9.996;2023-12-07T05:16:10;96861.47;;;1.24;100.00
25080;BME280;13071;48.868;9.996;2023-12-07T05:18:38;96863.06;;;1.25;100.00
25080;BME280;13071;48.868;9.996;2023-12-07T05:21:04;96867.34;;;1.26;100.00
25080;BME280;13071;48.868;9.996;2023-12-07T05:23:31;96847.34;;;1.29;100.00
25080;BME280;13071;48.868;9.996;2023-12-07T05:25:58;96850.56;;;1.26;100.00
25080;BME280;13071;48.868;9.996;2023-12-07T05:28:25;96854.56;;;1.18;100.00
25080;BME280;13071;48.868;9.996;2023-12-07T05:30:52;96853.75;;;1.13;100.00
25080;BME280;13071;48.868;9.996;2023-12-07T05:33:18;96850.25;;;1.12;100.00
25080;BME280;13071;48.868;9.996;2023-12-07T05:35:47;96860.09;;;1.02;100.00
25080;BME280;13071;48.868;9.996;2023-12-07T05:38:13;96856.09;;;0.99;100.00
25080;BME280;13071;48.868;9.996;2023-12-07T05:40:40;96855.53;;;0.87;100.00
25080;BME280;13071;48.868;9.996;2023-12-07T05:43:07;96860.28;;;0.80;100.00
25080;BME280;13071;48.868;9.996;2023-12-07T05:45:34;96857.88;;;0.68;100.00
25080;BME280;13071;48.868;9.996;2023-12-07T05:48:00;96862.13;;;0.59;100.00
25080;BME280;13071;48.868;9.996;2023-12-07T05:50:27;96864.44;;;0.46;100.00
25080;BME280;13071;48.868;9.996;2023-12-07T05:52:55;96851.41;;;0.44;100.00
25080;BME280;13071;48.868;9.996;2023-12-07T05:55:21;96862.28;;;0.42;100.00
25080;BME280;13071;48.868;9.996;2023-12-07T05:57:49;96854.06;;;0.44;100.00
25080;BME280;13071;48.868;9.996;2023-12-07T06:00:16;96859.06;;;0.35;100.00
25080;BME280;13071;48.868;9.996;2023-12-07T06:02:44;96858.00;;;0.36;100.00
25080;BME280;13071;48.868;9.996;2023-12-07T06:05:10;96863.31;;;0.36;100.00
25080;BME280;13071;48.868;9.996;2023-12-07T06:07:37;96866.25;;;0.40;100.00
25080;BME280;13071;48.868;9.996;2023-12-07T06:10:05;96872.91;;;0.37;100.00
25080;BME280;13071;48.868;9.996;2023-12-07T06:12:32;96867.31;;;0.34;100.00
25080;BME280;13071;48.868;9.996;2023-12-07T06:14:59;96866.22;;;0.35;100.00
25080;BME280;13071;48.868;9.996;2023-12-07T06:17:26;96875.34;;;0.39;100.00
25080;BME280;13071;48.868;9.996;2023-12-07T06:19:52;96874.22;;;0.35;100.00
25080;BME280;13071;48.868;9.996;2023-12-07T06:22:19;96872.88;;;0.27;100.00
25080;BME280;13071;48.868;9.996;2023-12-07T06:24:45;96875.56;;;0.32;100.00
25080;BME280;13071;48.868;9.996;2023-12-07T06:27:14;96865.13;;;0.26;100.00
25080;BME280;13071;48.868;9.996;2023-12-07T06:29:40;96880.81;;;0.22;100.00
25080;BME280;13071;48.868;9.996;2023-12-07T06:32:07;96882.16;;;0.20;100.00
25080;BME280;13071;48.868;9.996;2023-12-07T06:34:33;96882.38;;;0.13;100.00
25080;BME280;13071;48.868;9.996;2023-12-07T06:37:00;96882.88;;;0.10;100.00
25080;BME280;13071;48.868;9.996;2023-12-07T06:39:27;96890.56;;;0.07;100.00
25080;BME280;13071;48.868;9.996;2023-12-07T06:41:53;96885.50;;;0.05;100.00
25080;BME280;13071;48.868;9.996;2023-12-07T06:44:22;96882.59;;;0.07;100.00
25080;BME280;13071;48.868;9.996;2023-12-07T06:46:48;96884.72;;;0.05;100.00
25080;BME280;13071;48.868;9.996;2023-12-07T06:49:15;96882.84;;;0.05;100.00
25080;BME280;13071;48.868;9.996;2023-12-07T06:51:42;96885.56;;;0.15;100.00
25080;BME280;13071;48.868;9.996;2023-12-07T06:54:09;96886.81;;;0.03;100.00
25080;BME280;13071;48.868;9.996;2023-12-07T06:56:35;96886.34;;;0.11;100.00
25080;BME280;13071;48.868;9.996;2023-12-07T06:59:02;96880.16;;;0.00;100.00
25080;BME280;13071;48.868;9.996;2023-12-07T07:01:30;96891.03;;;-0.07;100.00
25080;BME280;13071;48.868;9.996;2023-12-07T07:03:56;96878.50;;;-0.11;100.00
25080;BME280;13071;48.868;9.996;2023-12-07T07:06:23;96884.69;;;-0.01;100.00
25080;BME280;13071;48.868;9.996;2023-12-07T07:08:49;96894.00;;;0.02;100.00
25080;BME280;13071;48.868;9.996;2023-12-07T07:11:16;96899.38;;;0.12;100.00
25080;BME280;13071;48.868;9.996;2023-12-07T07:13:43;96892.44;;;0.06;100.00
25080;BME280;13071;48.868;9.996;2023-12-07T07:16:09;96899.06;;;0.04;100.00
25080;BME280;13071;48.868;9.996;2023-12-07T07:18:38;96897.69;;;-0.04;100.00
25080;BME280;13071;48.868;9.996;2023-12-07T07:21:05;96901.16;;;-0.04;100.00
25080;BME280;13071;48.868;9.996;2023-12-07T07:23:32;96902.19;;;-0.05;100.00
25080;BME280;13071;48.868;9.996;2023-12-07T07:26:00;96900.06;;;-0.08;100.00
25080;BME280;13071;48.868;9.996;2023-12-07T07:28:26;96896.59;;;-0.08;100.00
25080;BME280;13071;48.868;9.996;2023-12-07T07:30:53;96899.00;;;-0.07;100.00
25080;BME280;13071;48.868;9.996;2023-12-07T07:33:19;96894.13;;;-0.15;100.00
25080;BME280;13071;48.868;9.996;2023-12-07T07:35:48;96894.69;;;-0.13;100.00
25080;BME280;13071;48.868;9.996;2023-12-07T07:38:14;96898.16;;;-0.12;100.00
25080;BME280;13071;48.868;9.996;2023-12-07T07:40:41;96895.22;;;-0.16;100.00
25080;BME280;13071;48.868;9.996;2023-12-07T07:43:08;96898.16;;;-0.12;100.00
25080;BME280;13071;48.868;9.996;2023-12-07T07:45:34;96905.97;;;-0.01;100.00
25080;BME280;13071;48.868;9.996;2023-12-07T07:48:01;96903.84;;;0.02;100.00
25080;BME280;13071;48.868;9.996;2023-12-07T07:50:27;96889.06;;;0.21;100.00
25080;BME280;13071;48.868;9.996;2023-12-07T07:52:56;96890.38;;;0.18;100.00
25080;BME280;13071;48.868;9.996;2023-12-07T07:55:22;96889.09;;;0.26;100.00
25080;BME280;13071;48.868;9.996;2023-12-07T07:57:49;96899.63;;;0.11;100.00
25080;BME280;13071;48.868;9.996;2023-12-07T08:00:16;96896.00;;;0.22;100.00
25080;BME280;13071;48.868;9.996;2023-12-07T08:02:44;96893.34;;;0.27;100.00
25080;BME280;13071;48.868;9.996;2023-12-07T08:05:11;96896.31;;;0.30;100.00
25080;BME280;13071;48.868;9.996;2023-12-07T08:07:38;96896.88;;;0.37;100.00
25080;BME280;13071;48.868;9.996;2023-12-07T08:10:07;96896.34;;;0.40;100.00
25080;BME280;13071;48.868;9.996;2023-12-07T08:12:35;96892.09;;;0.44;100.00
25080;BME280;13071;48.868;9.996;2023-12-07T08:15:02;96893.25;;;0.54;100.00
25080;BME280;13071;48.868;9.996;2023-12-07T08:17:28;96898.09;;;0.72;100.00
25080;BME280;13071;48.868;9.996;2023-12-07T08:19:55;96897.53;;;0.65;100.00
25080;BME280;13071;48.868;9.996;2023-12-07T08:22:24;96899.13;;;0.66;100.00
25080;BME280;13071;48.868;9.996;2023-12-07T08:24:51;96904.25;;;0.77;100.00
25080;BME280;13071;48.868;9.996;2023-12-07T08:27:19;96904.44;;;0.61;100.00
25080;BME280;13071;48.868;9.996;2023-12-07T08:29:45;96901.81;;;0.66;100.00
25080;BME280;13071;48.868;9.996;2023-12-07T08:32:12;96890.13;;;0.77;100.00
25080;BME280;13071;48.868;9.996;2023-12-07T08:34:39;96896.56;;;0.86;100.00
25080;BME280;13071;48.868;9.996;2023-12-07T08:37:06;96902.47;;;0.93;100.00
25080;BME280;13071;48.868;9.996;2023-12-07T08:39:33;96902.97;;;0.95;100.00
25080;BME280;13071;48.868;9.996;2023-12-07T08:41:59;96899.84;;;1.03;100.00
25080;BME280;13071;48.868;9.996;2023-12-07T08:44:27;96904.63;;;1.11;100.00
25080;BME280;13071;48.868;9.996;2023-12-07T08:46:54;96901.75;;;1.23;100.00
25080;BME280;13071;48.868;9.996;2023-12-07T08:49:21;96910.81;;;1.22;99.91
25080;BME280;13071;48.868;9.996;2023-12-07T08:51:47;96901.75;;;1.28;99.58
25080;BME280;13071;48.868;9.996;2023-12-07T08:54:14;96903.09;;;1.36;99.39
25080;BME280;13071;48.868;9.996;2023-12-07T08:56:43;96901.25;;;1.41;98.63
25080;BME280;13071;48.868;9.996;2023-12-07T08:59:10;96908.44;;;1.46;98.24
25080;BME280;13071;48.868;9.996;2023-12-07T09:01:38;96908.69;;;1.44;97.33
25080;BME280;13071;48.868;9.996;2023-12-07T09:04:05;96903.88;;;1.31;98.00
25080;BME280;13071;48.868;9.996;2023-12-07T09:06:31;96904.69;;;1.32;98.79
25080;BME280;13071;48.868;9.996;2023-12-07T09:08:58;96904.44;;;1.38;98.65
25080;BME280;13071;48.868;9.996;2023-12-07T09:11:25;96907.63;;;1.40;99.14
25080;BME280;13071;48.868;9.996;2023-12-07T09:13:51;96902.31;;;1.50;98.69
25080;BME280;13071;48.868;9.996;2023-12-07T09:16:18;96909.78;;;1.58;98.54
25080;BME280;13071;48.868;9.996;2023-12-07T09:18:48;96910.88;;;1.52;98.42
25080;BME280;13071;48.868;9.996;2023-12-07T09:21:14;96916.72;;;1.64;98.40
25080;BME280;13071;48.868;9.996;2023-12-07T09:23:41;96906.06;;;1.69;98.13
25080;BME280;13071;48.868;9.996;2023-12-07T09:26:07;96904.19;;;1.75;98.29
25080;BME280;13071;48.868;9.996;2023-12-07T09:28:34;96900.97;;;1.83;97.80
25080;BME280;13071;48.868;9.996;2023-12-07T09:31:00;96894.84;;;1.93;97.31
25080;BME280;13071;48.868;9.996;2023-12-07T09:33:27;96899.66;;;1.96;96.26
25080;BME280;13071;48.868;9.996;2023-12-07T09:35:55;96904.75;;;1.87;96.82
25080;BME280;13071;48.868;9.996;2023-12-07T09:38:22;96901.25;;;1.66;97.54
25080;BME280;13071;48.868;9.996;2023-12-07T09:40:52;96902.59;;;1.69;98.94
25080;BME280;13071;48.868;9.996;2023-12-07T09:43:19;96898.84;;;1.65;99.18
25080;BME280;13071;48.868;9.996;2023-12-07T09:45:47;96886.31;;;1.50;100.00
25080;BME280;13071;48.868;9.996;2023-12-07T09:48:15;96884.97;;;1.63;100.00
25080;BME280;13071;48.868;9.996;2023-12-07T09:50:43;96885.00;;;1.53;100.00
25080;BME280;13071;48.868;9.996;2023-12-07T09:53:11;96877.50;;;1.65;100.00
25080;BME280;13071;48.868;9.996;2023-12-07T09:55:37;96861.25;;;1.82;100.00
25080;BME280;13071;48.868;9.996;2023-12-07T09:58:04;96855.88;;;1.97;98.85
25080;BME280;13071;48.868;9.996;2023-12-07T10:00:31;96856.16;;;1.85;98.04
25080;BME280;13071;48.868;9.996;2023-12-07T10:02:58;96858.28;;;1.78;97.52
25080;BME280;13071;48.868;9.996;2023-12-07T10:05:25;96855.09;;;1.91;98.01
25080;BME280;13071;48.868;9.996;2023-12-07T10:07:51;96842.81;;;1.90;97.14
25080;BME280;13071;48.868;9.996;2023-12-07T10:10:19;96843.06;;;1.79;97.07
25080;BME280;13071;48.868;9.996;2023-12-07T10:12:47;96849.47;;;1.83;97.23
25080;BME280;13071;48.868;9.996;2023-12-07T10:15:15;96838.00;;;1.97;96.92
25080;BME280;13071;48.868;9.996;2023-12-07T10:17:46;96840.69;;;1.97;96.76
25080;BME280;13071;48.868;9.996;2023-12-07T10:20:15;96847.56;;;2.13;97.28
25080;BME280;13071;48.868;9.996;2023-12-07T10:22:42;96836.88;;;2.13;96.86
25080;BME280;13071;48.868;9.996;2023-12-07T10:25:10;96829.69;;;2.14;97.28
25080;BME280;13071;48.868;9.996;2023-12-07T10:27:40;96822.44;;;2.30;96.59
25080;BME280;13071;48.868;9.996;2023-12-07T10:30:09;96828.22;;;2.47;95.21
25080;BME280;13071;48.868;9.996;2023-12-07T10:32:37;96826.09;;;2.49;93.93
25080;BME280;13071;48.868;9.996;2023-12-07T10:35:07;96828.72;;;2.59;94.14
25080;BME280;13071;48.868;9.996;2023-12-07T10:37:34;96815.63;;;2.63;93.12
25080;BME280;13071;48.868;9.996;2023-12-07T10:40:03;96822.19;;;2.26;93.56
25080;BME280;13071;48.868;9.996;2023-12-07T10:42:33;96805.59;;;2.34;94.62
25080;BME280;13071;48.868;9.996;2023-12-07T10:45:04;96806.88;;;2.42;93.49
25080;BME280;13071;48.868;9.996;2023-12-07T10:47:33;96808.63;;;2.67;92.94
25080;BME280;13071;48.868;9.996;2023-12-07T10:50:03;96815.53;;;2.78;92.04
25080;BME280;13071;48.868;9.996;2023-12-07T10:52:32;96812.03;;;2.82;91.78
25080;BME280;13071;48.868;9.996;2023-12-07T10:55:03;96807.16;;;2.94;91.13
25080;BME280;13071;48.868;9.996;2023-12-07T10:57:33;96780.47;;;2.89;91.45
25080;BME280;13071;48.868;9.996;2023-12-07T11:00:00;96789.75;;;2.97;91.47
25080;BME280;13071;48.868;9.996;2023-12-07T11:02:29;96794.59;;;2.95;90.69
25080;BME280;13071;48.868;9.996;2023-12-07T11:04:59;96789.97;;;2.61;91.79
25080;BME280;13071;48.868;9.996;2023-12-07T11:07:32;96787.72;;;2.84;91.87
25080;BME280;13071;48.868;9.996;2023-12-07T11:10:10;96779.03;;;3.02;90.93
25080;BME280;13071;48.868;9.996;2023-12-07T11:12:43;96767.00;;;3.04;90.80
25080;BME280;13071;48.868;9.996;2023-12-07T11:15:13;96769.03;;;3.18;89.74
25080;BME280;13071;48.868;9.996;2023-12-07T11:17:52;96774.47;;;3.08;89.98
25080;BME280;13071;48.868;9.996;2023-12-07T11:20:20;96776.25;;;3.17;89.40
25080;BME280;13071;48.868;9.996;2023-12-07T11:22:47;96769.81;;;3.23;89.00
25080;BME280;13071;48.868;9.996;2023-12-07T11:25:15;96773.00;;;3.25;88.59
25080;BME280;13071;48.868;9.996;2023-12-07T11:27:44;96773.09;;;3.15;89.23
25080;BME280;13071;48.868;9.996;2023-12-07T11:30:14;96779.06;;;2.97;89.49
25080;BME280;13071;48.868;9.996;2023-12-07T11:32:40;96775.94;;;3.24;88.45
25080;BME280;13071;48.868;9.996;2023-12-07T11:35:12;96778.09;;;3.22;88.73
25080;BME280;13071;48.868;9.996;2023-12-07T11:38:01;96779.69;;;3.23;88.97
25080;BME280;13071;48.868;9.996;2023-12-07T11:40:29;96770.91;;;3.17;89.44
25080;BME280;13071;48.868;9.996;2023-12-07T11:42:57;96762.41;;;3.10;88.70
25080;BME280;13071;48.868;9.996;2023-12-07T11:45:38;96755.34;;;3.24;88.27
25080;BME280;13071;48.868;9.996;2023-12-07T11:48:12;96759.56;;;3.35;86.61
25080;BME280;13071;48.868;9.996;2023-12-07T11:50:59;96753.97;;;2.93;86.75
25080;BME280;13071;48.868;9.996;2023-12-07T11:53:27;96746.03;;;3.17;87.68
25080;BME280;13071;48.868;9.996;2023-12-07T11:55:55;96734.91;;;3.38;86.20
25080;BME280;13071;48.868;9.996;2023-12-07T11:58:22;96720.69;;;3.43;84.42
25080;BME280;13071;48.868;9.996;2023-12-07T12:00:51;96721.44;;;3.48;83.82
25080;BME280;13071;48.868;9.996;2023-12-07T12:03:18;96720.19;;;3.36;84.11
25080;BME280;13071;48.868;9.996;2023-12-07T12:05:45;96712.88;;;3.46;84.23
25080;BME280;13071;48.868;9.996;2023-12-07T12:08:13;96706.69;;;3.51;84.23
25080;BME280;13071;48.868;9.996;2023-12-07T12:10:41;96706.19;;;3.49;83.83
25080;BME280;13071;48.868;9.996;2023-12-07T12:13:09;96704.00;;;3.51;83.68
25080;BME280;13071;48.868;9.996;2023-12-07T12:15:36;96712.47;;;3.34;83.92
25080;BME280;13071;48.868;9.996;2023-12-07T12:18:03;96703.47;;;3.25;84.03
25080;BME280;13071;48.868;9.996;2023-12-07T12:20:30;96705.16;;;3.45;83.59
25080;BME280;13071;48.868;9.996;2023-12-07T12:22:58;96704.44;;;3.63;81.96
25080;BME280;13071;48.868;9.996;2023-12-07T12:25:27;96697.94;;;3.69;80.81
25080;BME280;13071;48.868;9.996;2023-12-07T12:27:56;96691.53;;;3.65;79.62
25080;BME280;13071;48.868;9.996;2023-12-07T12:30:24;96687.25;;;3.69;79.82
25080;BME280;13071;48.868;9.996;2023-12-07T12:32:51;96685.69;;;3.63;79.19
25080;BME280;13071;48.868;9.996;2023-12-07T12:35:18;96679.78;;;3.66;78.77
25080;BME280;13071;48.868;9.996;2023-12-07T12:37:45;96662.75;;;3.57;79.55
25080;BME280;13071;48.868;9.996;2023-12-07T12:40:14;96661.88;;;3.38;80.89
25080;BME280;13071;48.868;9.996;2023-12-07T12:42:44;96657.38;;;3.57;81.17
25080;BME280;13071;48.868;9.996;2023-12-07T12:45:11;96652.31;;;3.56;81.26
25080;BME280;13071;48.868;9.996;2023-12-07T12:47:39;96643.63;;;3.45;80.55
25080;BME280;13071;48.868;9.996;2023-12-07T12:50:06;96646.63;;;3.38;79.96
25080;BME280;13071;48.868;9.996;2023-12-07T12:52:33;96644.56;;;3.30;82.77
25080;BME280;13071;48.868;9.996;2023-12-07T12:55:00;96638.66;;;3.57;80.98
25080;BME280;13071;48.868;9.996;2023-12-07T12:57:28;96637.47;;;3.44;80.30
25080;BME280;13071;48.868;9.996;2023-12-07T12:59:56;96631.75;;;3.51;80.99
25080;BME280;13071;48.868;9.996;2023-12-07T13:02:22;96629.78;;;3.62;79.63
25080;BME280;13071;48.868;9.996;2023-12-07T13:04:49;96628.91;;;3.42;80.55